createdAt,value
2022-08-07T00:00:35.106Z,100553.53
2022-08-07T00:03:01.752Z,100558.19
2022-08-07T00:05:29.574Z,100560.00
2022-08-07T00:07:58.308Z,100565.06
2022-08-07T00:10:29.614Z,100562.81
2022-08-07T00:13:00.175Z,100561.75
2022-08-07T00:15:38.203Z,100562.84
2022-08-07T00:18:19.429Z,100564.50
2022-08-07T00:20:46.774Z,100567.13
2022-08-07T00:23:14.939Z,100562.72
2022-08-07T00:25:43.805Z,100555.78
2022-08-07T00:28:18.725Z,100560.56
2022-08-07T00:30:48.756Z,100564.09
2022-08-07T00:33:15.557Z,100558.19
2022-08-07T00:35:45.348Z,100551.25
2022-08-07T00:38:15.743Z,100551.25
2022-08-07T00:40:57.569Z,100548.41
2022-08-07T00:44:01.960Z,100559.56
2022-08-07T00:46:11.256Z,100556.00
2022-08-07T00:48:42.072Z,100554.75
2022-08-07T00:51:09.271Z,100546.78
2022-08-07T00:53:38.366Z,100551.66
2022-08-07T00:56:07.488Z,100550.41
2022-08-07T00:58:46.797Z,100551.75
2022-08-07T01:01:16.815Z,100545.31
2022-08-07T01:03:55.420Z,100548.09
2022-08-07T01:06:25.088Z,100546.16
2022-08-07T01:08:53.890Z,100542.50
2022-08-07T01:12:10.297Z,100548.69
2022-08-07T01:14:09.391Z,100541.34
2022-08-07T01:16:36.871Z,100545.47
2022-08-07T01:19:04.656Z,100545.47
2022-08-07T01:21:41.516Z,100547.56
2022-08-07T01:24:09.746Z,100548.84
2022-08-07T01:26:36.728Z,100551.16
2022-08-07T01:29:03.698Z,100546.47
2022-08-07T01:31:42.443Z,100543.91
2022-08-07T01:34:14.252Z,100542.09
2022-08-07T01:36:40.903Z,100546.28
2022-08-07T01:39:10.760Z,100551.03
2022-08-07T01:41:39.064Z,100543.09
2022-08-07T01:44:07.552Z,100538.66
2022-08-07T01:46:34.220Z,100548.22
2022-08-07T01:49:02.252Z,100546.16
2022-08-07T01:52:03.795Z,100545.87
2022-08-07T01:54:33.225Z,100546.25
2022-08-07T01:57:04.259Z,100545.87
2022-08-07T01:59:45.218Z,100549.84
2022-08-07T02:03:11.335Z,100553.91
2022-08-07T02:05:07.673Z,100552.34
2022-08-07T02:08:02.513Z,100555.78
2022-08-07T02:10:29.118Z,100546.56
2022-08-07T02:12:57.419Z,100549.16
2022-08-07T02:15:28.031Z,100560.41
2022-08-07T02:17:55.192Z,100557.44
2022-08-07T02:20:24.478Z,100558.53
2022-08-07T02:22:57.605Z,100560.59
2022-08-07T02:26:10.464Z,100559.00
2022-08-07T02:28:13.160Z,100559.56
2022-08-07T02:30:39.782Z,100561.63
2022-08-07T02:33:10.459Z,100566.09
2022-08-07T02:36:28.869Z,100563.66
2022-08-07T02:38:31.972Z,100566.09
2022-08-07T02:40:59.504Z,100565.50
2022-08-07T02:43:27.659Z,100576.91
2022-08-07T02:46:00.219Z,100575.91
2022-08-07T02:48:29.214Z,100583.84
2022-08-07T02:50:56.117Z,100579.50
2022-08-07T02:53:28.647Z,100578.91
2022-08-07T02:56:04.196Z,100585.00
2022-08-07T02:58:33.364Z,100591.28
2022-08-07T03:01:00.356Z,100588.00
2022-08-07T03:03:29.621Z,100582.94
2022-08-07T03:06:16.368Z,100587.62
2022-08-07T03:08:52.368Z,100588.06
2022-08-07T03:11:19.377Z,100582.56
2022-08-07T03:13:51.867Z,100584.47
2022-08-07T03:16:27.817Z,100582.09
2022-08-07T03:18:54.647Z,100585.28
2022-08-07T03:21:22.237Z,100580.72
2022-08-07T03:24:19.444Z,100580.09
2022-08-07T03:26:35.767Z,100584.28
2022-08-07T03:29:11.114Z,100582.50
2022-08-07T03:31:43.233Z,100587.13
2022-08-07T03:34:18.848Z,100586.03
2022-08-07T03:36:49.579Z,100594.59
2022-08-07T03:39:16.964Z,100599.53
2022-08-07T03:41:50.685Z,100593.78
2022-08-07T03:44:21.804Z,100597.06
2022-08-07T03:47:11.274Z,100585.87
2022-08-07T03:49:41.021Z,100589.25
2022-08-07T03:52:07.663Z,100597.13
2022-08-07T03:54:54.962Z,100591.66
2022-08-07T03:58:33.042Z,100601.81
2022-08-07T04:00:13.129Z,100609.84
2022-08-07T04:02:43.117Z,100604.91
2022-08-07T04:05:13.978Z,100607.88
2022-08-07T04:07:45.649Z,100617.19
2022-08-07T04:10:15.708Z,100608.59
2022-08-07T04:12:45.891Z,100622.53
2022-08-07T04:15:13.921Z,100624.28
2022-08-07T04:18:30.945Z,100626.53
2022-08-07T04:20:29.623Z,100628.88
2022-08-07T04:23:01.774Z,100634.13
2022-08-07T04:25:29.175Z,100638.19
2022-08-07T04:28:00.786Z,100633.84
2022-08-07T04:30:43.524Z,100629.00
2022-08-07T04:33:14.010Z,100638.06
2022-08-07T04:35:44.338Z,100638.50
2022-08-07T04:38:17.278Z,100644.72
2022-08-07T04:40:51.663Z,100648.59
2022-08-07T04:43:22.328Z,100643.34
2022-08-07T04:46:12.313Z,100653.69
2022-08-07T04:48:57.402Z,100646.00
2022-08-07T04:51:37.290Z,100649.69
2022-08-07T04:54:17.977Z,100650.37
2022-08-07T04:58:13.925Z,100646.72
2022-08-07T05:00:09.455Z,100655.44
2022-08-07T05:03:17.224Z,100655.03
2022-08-07T05:06:16.422Z,100653.94
2022-08-07T05:09:01.187Z,100654.19
2022-08-07T05:11:57.075Z,100662.69
2022-08-07T05:14:56.174Z,100666.63
2022-08-07T05:17:52.638Z,100671.44
2022-08-07T05:20:11.798Z,100675.13
2022-08-07T05:22:39.594Z,100675.50
2022-08-07T05:25:08.776Z,100678.91
2022-08-07T05:28:16.344Z,100673.00
2022-08-07T05:30:32.425Z,100679.62
2022-08-07T05:32:59.721Z,100676.59
2022-08-07T05:35:33.395Z,100676.78
2022-08-07T05:38:08.935Z,100678.31
2022-08-07T05:40:37.308Z,100678.31
2022-08-07T05:43:17.824Z,100690.44
2022-08-07T05:45:47.680Z,100689.81
2022-08-07T05:48:15.227Z,100691.53
2022-08-07T05:50:43.391Z,100697.41
2022-08-07T05:54:14.069Z,100695.56
2022-08-07T05:56:02.429Z,100690.19
2022-08-07T05:58:36.644Z,100691.34
2022-08-07T06:01:04.985Z,100700.78
2022-08-07T06:03:57.056Z,100693.88
2022-08-07T06:06:19.436Z,100690.44
2022-08-07T06:08:46.698Z,100689.84
2022-08-07T06:11:13.785Z,100677.87
2022-08-07T06:14:13.138Z,100680.66
2022-08-07T06:16:28.290Z,100679.50
2022-08-07T06:18:56.086Z,100686.69
2022-08-07T06:22:14.327Z,100689.38
2022-08-07T06:24:45.614Z,100686.66
2022-08-07T06:26:55.924Z,100693.00
2022-08-07T06:29:29.604Z,100700.78
2022-08-07T06:31:56.211Z,100708.00
2022-08-07T06:34:29.747Z,100706.75
2022-08-07T06:36:57.229Z,100711.31
2022-08-07T06:40:17.214Z,100714.38
2022-08-07T06:42:17.666Z,100712.00
2022-08-07T06:44:45.912Z,100713.94
2022-08-07T06:47:17.931Z,100717.06
2022-08-07T06:49:51.658Z,100718.16
2022-08-07T06:52:32.095Z,100717.09
2022-08-07T06:55:33.881Z,100713.09
2022-08-07T06:57:50.991Z,100714.41
2022-08-07T07:00:21.496Z,100721.13
2022-08-07T07:02:57.129Z,100721.25
2022-08-07T07:06:02.440Z,100727.91
2022-08-07T07:08:18.635Z,100730.50
2022-08-07T07:10:57.019Z,100723.81
2022-08-07T07:13:41.487Z,100728.75
2022-08-07T07:16:20.297Z,100721.25
2022-08-07T07:18:52.064Z,100725.37
2022-08-07T07:21:40.319Z,100723.50
2022-08-07T07:24:17.539Z,100722.75
2022-08-07T07:26:51.896Z,100726.50
2022-08-07T07:29:55.912Z,100723.12
2022-08-07T07:32:07.338Z,100720.22
2022-08-07T07:34:33.936Z,100717.47
2022-08-07T07:37:14.992Z,100716.22
2022-08-07T07:39:54.753Z,100714.19
2022-08-07T07:42:30.023Z,100712.91
2022-08-07T07:45:01.633Z,100710.53
2022-08-07T07:47:28.890Z,100706.19
2022-08-07T07:50:33.456Z,100706.28
2022-08-07T07:52:43.850Z,100717.94
2022-08-07T07:55:13.593Z,100719.38
2022-08-07T07:57:50.212Z,100709.44
2022-08-07T08:00:29.167Z,100718.13
2022-08-07T08:03:16.762Z,100716.91
2022-08-07T08:05:54.208Z,100720.62
2022-08-07T08:08:34.693Z,100718.56
2022-08-07T08:11:07.978Z,100715.06
2022-08-07T08:13:53.093Z,100714.41
2022-08-07T08:16:24.987Z,100718.19
2022-08-07T08:18:52.048Z,100715.47
2022-08-07T08:21:56.024Z,100717.66
2022-08-07T08:24:45.569Z,100717.41
2022-08-07T08:27:14.427Z,100723.16
2022-08-07T08:29:54.532Z,100717.56
2022-08-07T08:32:38.173Z,100712.88
2022-08-07T08:35:06.504Z,100723.25
2022-08-07T08:38:00.575Z,100728.19
2022-08-07T08:40:34.017Z,100718.66
2022-08-07T08:43:10.919Z,100722.56
2022-08-07T08:45:59.129Z,100721.09
2022-08-07T08:48:38.569Z,100725.37
2022-08-07T08:51:29.574Z,100716.78
2022-08-07T08:54:16.122Z,100723.47
2022-08-07T08:56:47.282Z,100719.69
2022-08-07T08:59:25.758Z,100717.94
2022-08-07T09:02:04.520Z,100713.19
2022-08-07T09:04:43.891Z,100716.72
2022-08-07T09:07:23.243Z,100721.16
2022-08-07T09:09:58.702Z,100716.84
2022-08-07T09:12:40.341Z,100718.37
2022-08-07T09:16:24.061Z,100721.47
2022-08-07T09:18:35.084Z,100721.37
2022-08-07T09:21:13.916Z,100715.09
2022-08-07T09:24:31.342Z,100714.06
2022-08-07T09:27:09.064Z,100717.94
2022-08-07T09:30:03.990Z,100710.31
2022-08-07T09:32:49.519Z,100699.66
2022-08-07T09:36:00.876Z,100711.00
2022-08-07T09:38:35.834Z,100707.31
2022-08-07T09:41:36.181Z,100710.94
2022-08-07T09:44:40.226Z,100702.88
2022-08-07T09:47:52.063Z,100703.81
2022-08-07T09:50:19.584Z,100705.03
2022-08-07T09:52:51.781Z,100702.34
2022-08-07T09:55:29.654Z,100706.38
2022-08-07T09:58:48.722Z,100692.62
2022-08-07T10:01:55.162Z,100692.94
2022-08-07T10:04:47.616Z,100691.19
2022-08-07T10:07:55.440Z,100678.50
2022-08-07T10:11:17.035Z,100675.00
2022-08-07T10:13:58.349Z,100676.66
2022-08-07T10:16:38.619Z,100671.69
2022-08-07T10:19:11.653Z,100675.22
2022-08-07T10:22:15.682Z,100670.63
2022-08-07T10:25:07.543Z,100662.78
2022-08-07T10:27:59.677Z,100664.06
2022-08-07T10:30:36.748Z,100657.22
2022-08-07T10:34:14.132Z,100654.63
2022-08-07T10:36:46.212Z,100654.72
2022-08-07T10:40:02.837Z,100648.94
2022-08-07T10:42:36.570Z,100652.94
2022-08-07T10:45:16.679Z,100644.88
2022-08-07T10:48:53.743Z,100639.12
2022-08-07T10:52:01.535Z,100640.53
2022-08-07T10:54:42.819Z,100635.34
2022-08-07T10:57:43.595Z,100630.13
2022-08-07T11:00:39.217Z,100628.22
2022-08-07T11:03:03.341Z,100630.25
2022-08-07T11:05:55.352Z,100621.28
2022-08-07T11:08:45.892Z,100621.06
2022-08-07T11:11:26.151Z,100617.91
2022-08-07T11:14:45.536Z,100620.16
2022-08-07T11:17:11.182Z,100619.09
2022-08-07T11:19:59.354Z,100607.22
2022-08-07T11:22:46.122Z,100604.94
2022-08-07T11:25:36.206Z,100607.81
2022-08-07T11:28:25.054Z,100597.56
2022-08-07T11:30:52.357Z,100591.34
2022-08-07T11:33:59.140Z,100588.56
2022-08-07T11:36:25.420Z,100594.41
2022-08-07T11:39:03.043Z,100594.00
2022-08-07T11:42:02.469Z,100591.69
2022-08-07T11:44:57.530Z,100593.34
2022-08-07T11:48:05.997Z,100586.88
2022-08-07T11:51:40.730Z,100583.75
2022-08-07T11:54:25.453Z,100581.28
2022-08-07T11:57:12.769Z,100581.44
2022-08-07T12:00:12.184Z,100579.47
2022-08-07T12:03:05.740Z,100574.72
2022-08-07T12:06:39.774Z,100571.84
2022-08-07T12:08:59.437Z,100573.94
2022-08-07T12:11:35.640Z,100566.88
2022-08-07T12:14:20.869Z,100567.13
2022-08-07T12:16:51.362Z,100570.25
2022-08-07T12:20:02.838Z,100560.59
2022-08-07T12:22:56.367Z,100556.47
2022-08-07T12:26:03.466Z,100556.94
2022-08-07T12:28:54.927Z,100552.88
2022-08-07T12:31:53.248Z,100549.25
2022-08-07T12:34:29.140Z,100550.91
2022-08-07T12:36:56.200Z,100546.28
2022-08-07T12:39:43.328Z,100542.81
2022-08-07T12:42:13.170Z,100541.94
2022-08-07T12:44:42.879Z,100539.72
2022-08-07T12:47:30.386Z,100533.69
2022-08-07T12:50:38.420Z,100536.09
2022-08-07T12:53:05.113Z,100529.81
2022-08-07T12:56:22.108Z,100531.28
2022-08-07T12:58:53.202Z,100523.62
2022-08-07T13:01:55.623Z,100515.00
2022-08-07T13:04:34.128Z,100517.25
2022-08-07T13:08:13.560Z,100513.59
2022-08-07T13:10:52.041Z,100518.41
2022-08-07T13:13:47.901Z,100522.22
2022-08-07T13:16:33.152Z,100518.25
2022-08-07T13:19:22.062Z,100515.13
2022-08-07T13:22:19.891Z,100515.06
2022-08-07T13:25:00.087Z,100515.94
2022-08-07T13:28:10.596Z,100519.25
2022-08-07T13:30:41.153Z,100517.78
2022-08-07T13:34:33.212Z,100509.16
2022-08-07T13:36:17.734Z,100506.22
2022-08-07T13:38:48.164Z,100505.00
2022-08-07T13:41:42.700Z,100498.13
2022-08-07T13:44:18.100Z,100491.63
2022-08-07T13:46:57.582Z,100490.41
2022-08-07T13:50:34.122Z,100494.13
2022-08-07T13:52:31.500Z,100485.00
2022-08-07T13:55:00.633Z,100488.75
2022-08-07T13:57:32.192Z,100477.66
2022-08-07T14:00:07.620Z,100475.56
2022-08-07T14:02:45.762Z,100467.41
2022-08-07T14:05:22.070Z,100471.37
2022-08-07T14:08:00.100Z,100464.69
2022-08-07T14:10:34.571Z,100461.97
2022-08-07T14:13:09.117Z,100462.19
2022-08-07T14:15:39.321Z,100461.72
2022-08-07T14:18:28.058Z,100461.94
2022-08-07T14:22:00.654Z,100455.06
2022-08-07T14:24:05.347Z,100464.88
2022-08-07T14:26:51.151Z,100455.88
2022-08-07T14:30:05.393Z,100466.19
2022-08-07T14:32:12.497Z,100460.37
2022-08-07T14:34:45.943Z,100456.63
2022-08-07T14:37:16.272Z,100450.56
2022-08-07T14:40:15.558Z,100451.03
2022-08-07T14:42:59.899Z,100451.88
2022-08-07T14:45:49.151Z,100444.59
2022-08-07T14:51:16.310Z,100438.19
2022-08-07T14:54:08.640Z,100441.97
2022-08-07T14:56:32.076Z,100430.25
2022-08-07T14:59:13.680Z,100435.09
2022-08-07T15:01:54.028Z,100428.84
2022-08-07T15:04:25.023Z,100426.31
2022-08-07T15:06:51.858Z,100426.75
2022-08-07T15:09:58.156Z,100410.66
2022-08-07T15:12:10.629Z,100419.03
2022-08-07T15:15:00.375Z,100420.13
2022-08-07T15:17:55.309Z,100413.44
2022-08-07T15:20:33.320Z,100415.31
2022-08-07T15:25:53.764Z,100410.66
2022-08-07T15:28:35.061Z,100404.97
2022-08-07T15:31:09.537Z,100409.75
2022-08-07T15:33:38.361Z,100402.25
2022-08-07T15:36:09.569Z,100404.97
2022-08-07T15:38:51.711Z,100401.41
2022-08-07T15:42:44.418Z,100408.56
2022-08-07T15:44:13.095Z,100402.69
2022-08-07T15:46:51.741Z,100399.37
2022-08-07T15:49:18.860Z,100397.50
2022-08-07T15:54:26.385Z,100401.69
2022-08-07T15:56:53.043Z,100391.06
2022-08-07T15:59:20.368Z,100396.25
2022-08-07T16:02:07.084Z,100393.31
2022-08-07T16:04:36.117Z,100395.81
2022-08-07T16:08:31.420Z,100391.41
2022-08-07T16:09:54.003Z,100398.91
2022-08-07T16:12:28.743Z,100392.22
2022-08-07T16:15:02.089Z,100395.28
2022-08-07T16:18:01.972Z,100398.22
2022-08-07T16:20:56.864Z,100394.88
2022-08-07T16:24:04.016Z,100394.16
2022-08-07T16:26:58.837Z,100394.62
2022-08-07T16:30:09.993Z,100401.25
2022-08-07T16:32:39.208Z,100391.69
2022-08-07T16:35:51.606Z,100397.91
2022-08-07T16:38:15.227Z,100392.47
2022-08-07T16:41:13.340Z,100396.25
2022-08-07T16:44:03.958Z,100396.25
2022-08-07T16:47:05.808Z,100394.34
2022-08-07T16:50:27.290Z,100401.38
2022-08-07T16:54:03.005Z,100398.06
2022-08-07T16:56:12.900Z,100393.25
2022-08-07T16:59:10.524Z,100397.81
2022-08-07T17:02:05.375Z,100393.81
2022-08-07T17:04:50.884Z,100399.72
2022-08-07T17:07:55.562Z,100406.19
2022-08-07T17:10:54.691Z,100396.19
2022-08-07T17:13:40.403Z,100411.47
2022-08-07T17:16:44.758Z,100404.97
2022-08-07T17:20:00.898Z,100403.13
2022-08-07T17:22:38.020Z,100406.41
2022-08-07T17:25:13.413Z,100399.03
2022-08-07T17:28:06.814Z,100411.13
2022-08-07T17:30:58.020Z,100406.94
2022-08-07T17:33:39.048Z,100404.56
2022-08-07T17:36:20.055Z,100404.88
2022-08-07T17:39:10.500Z,100410.47
2022-08-07T17:42:07.025Z,100411.81
2022-08-07T17:44:49.813Z,100408.25
2022-08-07T17:47:44.912Z,100417.38
2022-08-07T17:50:22.783Z,100418.56
2022-08-07T17:53:59.812Z,100423.44
2022-08-07T17:56:29.793Z,100420.41
2022-08-07T17:58:56.820Z,100427.56
2022-08-07T18:01:34.749Z,100427.97
2022-08-07T18:04:34.587Z,100424.84
2022-08-07T18:07:20.536Z,100430.69
2022-08-07T18:10:06.725Z,100437.69
2022-08-07T18:13:15.411Z,100449.88
2022-08-07T18:15:59.011Z,100458.66
2022-08-07T18:21:02.299Z,100455.59
2022-08-07T18:21:58.129Z,100467.84
2022-08-07T18:24:51.017Z,100463.47
2022-08-07T18:27:49.156Z,100457.84
2022-08-07T18:30:32.333Z,100465.72
2022-08-07T18:33:11.049Z,100473.34
2022-08-07T18:35:58.973Z,100471.03
2022-08-07T18:38:57.383Z,100475.31
2022-08-07T18:42:05.620Z,100478.88
2022-08-07T18:45:09.135Z,100481.66
2022-08-07T18:47:44.746Z,100485.75
2022-08-07T18:50:43.954Z,100484.84
2022-08-07T18:53:36.631Z,100496.31
2022-08-07T18:56:16.885Z,100491.94
2022-08-07T18:59:47.061Z,100498.75
2022-08-07T19:02:34.385Z,100500.41
2022-08-07T19:05:16.051Z,100505.66
2022-08-07T19:07:52.040Z,100508.41
2022-08-07T19:10:31.519Z,100507.25
2022-08-07T19:13:23.494Z,100503.88
2022-08-07T19:16:04.956Z,100505.16
2022-08-07T19:18:49.804Z,100520.38
2022-08-07T19:21:47.871Z,100527.38
2022-08-07T19:24:33.665Z,100535.81
2022-08-07T19:28:28.677Z,100537.09
2022-08-07T19:31:03.013Z,100541.81
2022-08-07T19:32:46.420Z,100548.22
2022-08-07T19:35:22.620Z,100550.75
2022-08-07T19:37:57.063Z,100556.81
2022-08-07T19:40:31.861Z,100558.22
2022-08-07T19:43:07.243Z,100571.34
2022-08-07T19:46:09.414Z,100568.47
2022-08-07T19:49:03.315Z,100567.31
2022-08-07T19:51:52.091Z,100569.31
2022-08-07T19:54:30.986Z,100574.19
2022-08-07T19:58:03.483Z,100571.66
2022-08-07T19:59:54.199Z,100577.19
2022-08-07T20:02:30.345Z,100570.28
2022-08-07T20:05:00.424Z,100577.03
2022-08-07T20:07:45.804Z,100589.00
2022-08-07T20:10:35.397Z,100586.78
2022-08-07T20:13:06.190Z,100579.87
2022-08-07T20:15:37.133Z,100584.44
2022-08-07T20:18:06.102Z,100581.22
2022-08-07T20:20:41.597Z,100587.09
2022-08-07T20:23:10.843Z,100590.63
2022-08-07T20:25:56.724Z,100594.62
2022-08-07T20:28:29.746Z,100596.63
2022-08-07T20:30:56.594Z,100598.78
2022-08-07T20:33:36.632Z,100603.16
2022-08-07T20:36:05.426Z,100600.28
2022-08-07T20:38:32.455Z,100596.91
2022-08-07T20:41:03.746Z,100605.34
2022-08-07T20:43:32.741Z,100603.63
2022-08-07T20:46:25.745Z,100600.44
2022-08-07T20:49:53.945Z,100596.56
2022-08-07T20:51:35.914Z,100599.09
2022-08-07T20:54:08.604Z,100605.59
2022-08-07T20:56:46.293Z,100595.34
2022-08-07T21:00:04.607Z,100596.81
2022-08-07T21:02:05.529Z,100605.06
2022-08-07T21:04:50.049Z,100611.56
2022-08-07T21:07:19.468Z,100610.31
2022-08-07T21:09:52.578Z,100614.66
2022-08-07T21:12:30.686Z,100610.56
2022-08-07T21:14:59.712Z,100611.97
2022-08-07T21:18:06.219Z,100610.97
2022-08-07T21:20:18.888Z,100616.37
2022-08-07T21:22:54.655Z,100615.72
2022-08-07T21:25:56.277Z,100625.34
2022-08-07T21:28:48.763Z,100632.28
2022-08-07T21:31:31.276Z,100627.53
2022-08-07T21:34:13.128Z,100630.16
2022-08-07T21:37:11.408Z,100633.84
2022-08-07T21:40:00.346Z,100637.88
2022-08-07T21:42:49.039Z,100639.72
2022-08-07T21:46:04.844Z,100639.81
2022-08-07T21:48:28.214Z,100645.78
2022-08-07T21:51:19.791Z,100648.81
2022-08-07T21:53:53.672Z,100651.94
2022-08-07T21:56:47.221Z,100648.13
2022-08-07T22:00:04.094Z,100644.88
2022-08-07T22:03:03.531Z,100644.88
2022-08-07T22:05:45.208Z,100653.81
2022-08-07T22:08:14.461Z,100649.84
2022-08-07T22:10:46.426Z,100658.06
2022-08-07T22:13:13.912Z,100662.19
2022-08-07T22:16:39.162Z,100661.34
2022-08-07T22:18:44.711Z,100664.59
2022-08-07T22:22:04.749Z,100666.88
2022-08-07T22:24:32.979Z,100661.81
2022-08-07T22:28:03.011Z,100656.47
2022-08-07T22:30:21.192Z,100659.47
2022-08-07T22:33:07.292Z,100659.16
2022-08-07T22:35:56.402Z,100663.69
2022-08-07T22:38:39.143Z,100664.41
2022-08-07T22:41:14.647Z,100662.59
2022-08-07T22:43:44.132Z,100665.69
2022-08-07T22:47:02.265Z,100668.38
2022-08-07T22:49:37.921Z,100672.34
2022-08-07T22:52:11.477Z,100663.47
2022-08-07T22:54:48.894Z,100665.47
2022-08-07T22:57:31.230Z,100671.41
2022-08-07T23:00:03.316Z,100670.94
2022-08-07T23:02:34.692Z,100675.75
2022-08-07T23:06:08.220Z,100678.31
2022-08-07T23:08:23.848Z,100679.03
2022-08-07T23:11:24.916Z,100683.69
2022-08-07T23:14:14.628Z,100690.59
2022-08-07T23:17:24.222Z,100688.50
2022-08-07T23:20:51.518Z,100689.06
2022-08-07T23:24:04.167Z,100689.38
2022-08-07T23:26:25.266Z,100686.69
2022-08-07T23:29:04.819Z,100685.69
2022-08-07T23:34:18.693Z,100695.72
2022-08-07T23:35:37.270Z,100693.06
2022-08-07T23:38:43.024Z,100691.09
2022-08-07T23:42:04.271Z,100688.41
2022-08-07T23:44:59.052Z,100689.00
2022-08-07T23:47:42.146Z,100683.34
2022-08-07T23:50:35.224Z,100686.47
2022-08-07T23:53:51.041Z,100691.25
2022-08-07T23:56:21.865Z,100690.28
